Time;durP1;ratioP1;P1;durP2;ratioP2;P2;SDS_P1;SDS_P2;PMS_P1;PMS_P2;Temp;Humidity;BMP_temperature;BMP_pressure;BME280_temperature;BME280_humidity;BME280_pressure;Samples;Min_cycle;Max_cycle;Signal;HPM_P1;HPM_P2
2021/05/18 00:01:45;;;;;;;8.40;5.40;;;;;;;15.03;79.14;98872.36;1643797;85;21111;-87
2021/05/18 00:04:15;;;;;;;12.43;6.53;;;;;;;14.92;79.87;98861.11;1642683;85;21302;-90
2021/05/18 00:06:42;;;;;;;8.58;6.00;;;;;;;14.81;81.16;98861.28;1644993;85;21113;-88
2021/05/18 00:11:55;;;;;;;8.05;6.78;;;;;;;14.97;80.38;98851.16;1642598;85;21109;-85
2021/05/18 00:14:23;;;;;;;8.65;6.85;;;;;;;14.84;81.65;98852.08;1647270;85;20998;-87
2021/05/18 00:16:50;;;;;;;10.10;7.17;;;;;;;14.85;81.86;98854.52;1641743;86;21027;-88
2021/05/18 00:19:16;;;;;;;9.18;7.03;;;;;;;15.00;81.35;98856.84;1641103;85;21035;-87
2021/05/18 00:21:44;;;;;;;9.88;7.33;;;;;;;14.90;82.09;98848.55;1642786;85;21140;-87
2021/05/18 00:24:15;;;;;;;9.55;7.12;;;;;;;15.01;81.84;98851.83;1647025;85;21112;-87
2021/05/18 00:26:44;;;;;;;9.08;6.97;;;;;;;15.06;81.81;98855.97;1646534;85;21666;-86
2021/05/18 00:29:17;;;;;;;10.80;7.83;;;;;;;15.10;81.45;98850.22;1637461;86;21176;-86
2021/05/18 00:31:44;;;;;;;11.65;7.67;;;;;;;15.02;82.18;98852.14;1663681;84;21164;-86
2021/05/18 00:34:11;;;;;;;;;;;;;;;14.93;82.83;98847.29;1665094;84;21164;-87
2021/05/18 00:36:39;;;;;;;12.82;8.03;;;;;;;15.03;82.54;98843.11;1661334;84;21143;-85
2021/05/18 00:39:07;;;;;;;11.18;7.67;;;;;;;15.08;82.34;98843.27;1660879;85;21568;-88
2021/05/18 00:41:33;;;;;;;11.75;8.38;;;;;;;14.96;83.25;98855.66;1636665;84;21582;-85
2021/05/18 00:43:59;;;;;;;12.73;8.83;;;;;;;14.83;84.13;98847.26;1662595;85;21674;-86
2021/05/18 00:46:27;;;;;;;11.97;9.33;;;;;;;14.78;84.81;98856.40;1662366;84;21115;-85
2021/05/18 00:48:58;;;;;;;;;;;;;;;14.86;84.36;98846.02;1623655;86;21219;-87
2021/05/18 00:51:30;;;;;;;13.70;9.95;;;;;;;14.77;85.59;98845.98;1663394;84;20184;-85
2021/05/18 00:53:58;;;;;;;12.63;9.63;;;;;;;14.83;84.92;98835.30;1662930;84;21032;-86
2021/05/18 00:58:25;;;;;;;13.75;10.30;;;;;;;14.66;85.91;98835.01;1662002;84;21186;-88
2021/05/18 00:59:04;;;;;;;13.35;9.93;;;;;;;14.83;85.48;98841.14;1657885;85;21048;-83
2021/05/18 01:01:32;;;;;;;12.98;9.13;;;;;;;14.99;84.28;98843.27;1662003;84;21218;-83
2021/05/18 01:03:59;;;;;;;;;;;;;;;14.94;84.96;98834.30;1666268;84;21040;-84
2021/05/18 01:06:30;;;;;;;11.15;8.75;;;;;;;14.97;84.84;98830.69;1664493;84;20671;-85
2021/05/18 01:09:12;;;;;;;12.35;9.38;;;;;;;15.01;84.41;98830.56;1661514;86;21073;-84
2021/05/18 01:11:49;;;;;;;12.25;9.20;;;;;;;15.04;84.20;98836.77;1662018;84;21078;-84
2021/05/18 01:14:17;;;;;;;12.93;9.20;;;;;;;15.02;84.49;98826.88;1662510;84;21203;-85
2021/05/18 01:16:48;;;;;;;10.48;8.00;;;;;;;15.02;84.49;98826.88;1663211;84;21136;-86
2021/05/18 01:19:18;;;;;;;12.23;8.98;;;;;;;15.06;84.46;98829.38;1663524;84;21081;-85
2021/05/18 01:21:44;;;;;;;12.37;8.85;;;;;;;14.98;84.87;98819.03;1661894;84;21096;-89
2021/05/18 01:24:14;;;;;;;12.55;8.43;;;;;;;15.04;84.71;98814.17;1661999;84;20886;-86
2021/05/18 01:26:45;;;;;;;11.65;8.65;;;;;;;15.06;84.57;98821.41;1664676;84;21962;-85
2021/05/18 01:29:12;;;;;;;13.15;8.80;;;;;;;15.21;83.86;98821.58;1663122;84;21164;-88
2021/05/18 01:31:41;;;;;;;;;;;;;;;15.14;84.03;98811.53;1667157;84;21039;-83
2021/05/18 01:34:09;;;;;;;11.57;7.90;;;;;;;15.14;84.48;98814.20;1664186;83;20260;-83
2021/05/18 01:36:35;;;;;;;;;;;;;;;15.20;83.98;98809.33;1667661;84;21692;-89
2021/05/18 01:39:21;;;;;;;9.38;7.03;;;;;;;15.34;83.63;98814.81;1664829;84;21152;-85
2021/05/18 01:44:23;;;;;;;10.63;7.83;;;;;;;15.34;83.20;98809.49;1662127;85;21990;-86
2021/05/18 01:46:50;;;;;;;12.88;8.25;;;;;;;15.31;83.81;98816.58;1664220;84;21246;-86
2021/05/18 01:49:19;;;;;;;10.30;7.90;;;;;;;15.21;83.92;98814.43;1666202;84;21100;-86
2021/05/18 01:51:49;;;;;;;11.05;8.25;;;;;;;15.13;84.56;98823.20;1665445;84;21068;-87
2021/05/18 01:54:26;;;;;;;12.60;8.95;;;;;;;15.01;85.05;98833.22;1637941;86;21130;-84
2021/05/18 01:59:28;;;;;;;12.10;8.40;;;;;;;14.71;86.73;98839.18;1656829;84;21029;-84
2021/05/18 02:01:58;;;;;;;12.85;9.03;;;;;;;14.71;86.98;98844.98;1662344;84;21116;-89
2021/05/18 02:04:42;;;;;;;11.05;8.25;;;;;;;14.64;87.47;98837.08;1663604;84;21150;-84
2021/05/18 02:07:17;;;;;;;12.35;8.68;;;;;;;14.67;87.38;98835.31;1662962;84;21093;-87
2021/05/18 02:09:46;;;;;;;11.83;9.28;;;;;;;14.86;86.57;98839.38;1635865;85;21073;-84
2021/05/18 02:12:20;;;;;;;13.50;9.98;;;;;;;14.74;87.39;98838.44;1662746;84;21008;-86
2021/05/18 02:14:49;;;;;;;13.35;10.25;;;;;;;14.70;87.85;98840.20;1636261;86;21236;-83
2021/05/18 02:17:26;;;;;;;;;;;;;;;14.65;88.14;98838.72;1662805;84;20977;-84
2021/05/18 02:25:21;;;;;;;12.98;9.88;;;;;;;14.53;89.30;98840.40;1661398;85;21009;-84
2021/05/18 02:27:50;;;;;;;16.25;11.63;;;;;;;14.50;89.74;98842.95;1660231;86;21232;-84
2021/05/18 02:30:17;;;;;;;15.13;11.38;;;;;;;14.44;90.05;98849.65;1638802;85;22190;-85
2021/05/18 02:32:42;;;;;;;17.17;11.83;;;;;;;14.51;89.91;98840.61;1663629;84;21626;-87
2021/05/18 02:35:13;;;;;;;12.80;10.30;;;;;;;14.52;89.75;98854.70;1634819;85;20934;-84
2021/05/18 02:37:41;;;;;;;15.35;11.50;;;;;;;14.34;90.32;98853.58;1636674;86;21125;-85
2021/05/18 02:40:15;;;;;;;16.30;10.72;;;;;;;14.51;89.53;98853.06;1635094;86;21084;-85
2021/05/18 02:42:44;;;;;;;16.15;12.70;;;;;;;14.51;89.50;98853.89;1664692;84;21068;-85
2021/05/18 02:50:29;;;;;;;16.80;11.80;;;;;;;14.65;89.03;98849.84;1656651;84;21071;-86
2021/05/18 02:52:56;;;;;;;14.83;10.93;;;;;;;14.65;88.87;98849.34;1661192;84;21060;-86
2021/05/18 02:55:35;;;;;;;;;;;;;;;14.70;88.66;98848.17;1659932;86;21051;-85
2021/05/18 02:57:54;;;;;;;13.70;10.13;;;;;;;14.69;88.86;98852.38;1666006;84;20220;-85
2021/05/18 03:00:24;;;;;;;13.78;10.63;;;;;;;14.72;88.36;98852.75;1666595;84;21104;-86
2021/05/18 03:02:52;;;;;;;13.38;10.75;;;;;;;14.83;88.08;98855.75;1664638;84;21136;-85
2021/05/18 03:05:20;;;;;;;13.45;10.25;;;;;;;14.78;88.13;98855.59;1666340;84;21393;-85
2021/05/18 03:07:46;;;;;;;12.58;10.03;;;;;;;15.06;86.77;98849.85;1662761;84;21136;-88
2021/05/18 03:10:14;;;;;;;13.18;10.35;;;;;;;15.17;86.00;98849.66;1662488;84;21113;-86
2021/05/18 03:12:41;;;;;;;16.60;10.55;;;;;;;15.04;86.23;98852.73;1662409;84;21642;-85
2021/05/18 03:15:10;;;;;;;13.70;10.30;;;;;;;15.00;86.21;98851.52;1662247;84;21168;-85
2021/05/18 03:17:42;;;;;;;15.05;10.32;;;;;;;15.12;85.90;98853.47;1632769;85;21108;-85
2021/05/18 03:20:14;;;;;;;14.13;9.95;;;;;;;15.26;85.14;98853.67;1661994;84;21248;-86
2021/05/18 03:22:42;;;;;;;14.35;10.10;;;;;;;15.31;84.82;98860.99;1662474;84;21153;-86
2021/05/18 03:25:12;;;;;;;15.08;10.30;;;;;;;15.31;84.75;98859.66;1634851;86;21150;-85
2021/05/18 03:27:39;;;;;;;13.15;9.63;;;;;;;15.31;84.58;98861.80;1659444;84;21398;-87
2021/05/18 03:35:39;;;;;;;15.35;10.60;;;;;;;15.27;84.33;98863.25;1655752;84;21395;-89
2021/05/18 03:38:23;;;;;;;15.70;9.78;;;;;;;14.98;85.54;98864.23;1653189;84;21064;-88
2021/05/18 03:40:38;;;;;;;15.10;10.03;;;;;;;15.19;84.86;98863.54;1654447;84;21088;-87
2021/05/18 03:43:21;;;;;;;13.15;10.08;;;;;;;15.19;84.85;98860.36;1652389;84;21128;-89
2021/05/18 03:45:38;;;;;;;12.07;9.98;;;;;;;15.08;85.00;98867.19;1652772;84;21055;-85
2021/05/18 04:02:39;;;;;;;14.68;10.18;;;;;;;15.37;83.80;98877.41;1651235;84;21014;-84
2021/05/18 04:04:23;;;;;;;12.85;9.50;;;;;;;15.42;83.75;98869.58;1654304;84;21023;-84
2021/05/18 04:18:02;;;;;;;16.27;10.30;;;;;;;15.60;83.04;98866.14;1655377;84;21136;-85
2021/05/18 04:41:18;;;;;;;12.95;9.50;;;;;;;16.12;80.00;98877.23;1645496;85;21105;-84
2021/05/18 04:49:41;;;;;;;19.87;8.75;;;;;;;16.23;79.04;98890.84;1646228;85;21389;-85
2021/05/18 04:51:47;;;;;;;11.97;8.63;;;;;;;16.39;78.79;98884.91;1647073;85;21027;-88
2021/05/18 05:07:07;;;;;;;12.00;8.80;;;;;;;16.36;78.70;98895.18;1645553;85;21192;-85
2021/05/18 05:09:44;;;;;;;10.30;8.70;;;;;;;16.37;78.24;98889.63;1640104;85;21604;-87
2021/05/18 05:12:39;;;;;;;13.83;8.73;;;;;;;16.42;78.05;98896.95;1648054;85;21073;-90
2021/05/18 05:14:44;;;;;;;14.18;9.50;;;;;;;16.73;77.34;98894.56;1644424;85;21046;-87
2021/05/18 05:17:10;;;;;;;15.13;9.95;;;;;;;16.76;76.75;98891.97;1629798;85;21090;-86
2021/05/18 05:19:36;;;;;;;15.25;9.18;;;;;;;16.69;77.04;98895.55;1633417;85;20975;-85
2021/05/18 05:22:04;;;;;;;15.35;9.33;;;;;;;16.56;77.34;98902.91;1644122;85;21615;-85
2021/05/18 05:24:32;;;;;;;14.98;8.58;;;;;;;16.71;76.77;98896.66;1650796;85;21029;-88
2021/05/18 05:26:59;;;;;;;16.87;8.98;;;;;;;16.78;76.76;98905.38;1642725;85;21117;-82
2021/05/18 05:29:27;;;;;;;12.55;8.78;;;;;;;16.85;76.13;98910.61;1627681;86;21183;-87
2021/05/18 05:31:55;;;;;;;14.65;9.18;;;;;;;16.82;75.95;98903.86;1633853;84;21212;-85
2021/05/18 05:34:26;;;;;;;11.93;8.18;;;;;;;16.65;76.39;98914.88;1662306;84;21661;-83
2021/05/18 05:36:52;;;;;;;11.30;8.20;;;;;;;16.73;76.37;98905.75;1658681;84;21363;-85
2021/05/18 05:39:24;;;;;;;16.05;8.53;;;;;;;16.77;76.03;98903.74;1662538;84;20921;-89
2021/05/18 05:41:55;;;;;;;10.93;8.30;;;;;;;16.93;75.48;98916.97;1665105;84;21668;-82
2021/05/18 05:44:23;;;;;;;13.40;8.08;;;;;;;17.07;74.95;98908.77;1659193;84;21032;-82
2021/05/18 05:46:49;;;;;;;14.53;7.83;;;;;;;17.03;74.52;98908.43;1662218;84;21005;-85
2021/05/18 05:49:15;;;;;;;10.45;7.40;;;;;;;17.17;74.48;98912.50;1634357;84;21272;-85
2021/05/18 05:51:41;;;;;;;12.13;7.60;;;;;;;17.41;73.76;98899.18;1661403;84;21016;-85
2021/05/18 05:54:08;;;;;;;12.37;7.30;;;;;;;17.44;73.42;98898.72;1663003;84;21122;-85
2021/05/18 05:56:35;;;;;;;15.20;8.40;;;;;;;17.38;73.53;98896.44;1661801;84;21133;-86
2021/05/18 05:59:02;;;;;;;13.13;7.92;;;;;;;17.13;74.33;98908.66;1661000;86;21163;-86
2021/05/18 06:01:31;;;;;;;9.60;7.08;;;;;;;17.26;73.50;98905.48;1634505;86;21083;-84
2021/05/18 06:03:57;;;;;;;9.48;7.35;;;;;;;17.40;72.79;98903.72;1661416;84;21060;-84
2021/05/18 06:06:24;;;;;;;10.63;7.33;;;;;;;17.21;73.32;98899.01;1660347;84;21704;-79
2021/05/18 06:08:52;;;;;;;12.03;7.08;;;;;;;17.19;73.23;98923.75;1664051;84;21116;-84
2021/05/18 06:11:31;;;;;;;9.53;6.72;;;;;;;17.19;73.51;98921.08;1663020;84;21091;-83
2021/05/18 06:41:13;;;;;;;12.00;6.95;;;;;;;17.11;74.35;98934.77;1664253;84;21049;-82
2021/05/18 06:48:37;;;;;;;11.12;7.20;;;;;;;17.51;73.19;98926.11;1662401;84;21118;-84
2021/05/18 06:51:06;;;;;;;10.45;7.35;;;;;;;17.53;72.79;98924.55;1661683;84;21039;-83
2021/05/18 06:53:32;;;;;;;10.18;7.10;;;;;;;17.39;72.93;98949.31;1660275;84;21072;-85
2021/05/18 06:55:59;;;;;;;12.18;7.03;;;;;;;17.66;72.43;98934.17;1662072;84;22187;-83
2021/05/18 07:01:07;;;;;;;11.90;7.70;;;;;;;17.55;72.09;98943.27;1664501;84;21046;-83
2021/05/18 07:03:45;;;;;;;12.57;7.80;;;;;;;17.52;71.99;98935.73;1663916;84;21678;-83
2021/05/18 07:11:16;;;;;;;13.78;8.48;;;;;;;17.39;71.99;98942.64;1663564;84;20977;-85
2021/05/18 07:13:42;;;;;;;12.65;8.00;;;;;;;17.32;72.51;98947.26;1661029;84;21012;-84
2021/05/18 07:16:12;;;;;;;12.10;7.92;;;;;;;17.46;71.98;98939.32;1659391;84;21068;-83
2021/05/18 07:18:38;;;;;;;16.20;8.05;;;;;;;17.39;72.31;98953.31;1660602;84;21709;-83
2021/05/18 07:21:08;;;;;;;15.38;8.83;;;;;;;17.31;72.53;98956.30;1659392;84;21624;-82
2021/05/18 07:23:35;;;;;;;13.22;8.65;;;;;;;17.18;72.61;98967.50;1634138;86;21693;-84
2021/05/18 07:26:03;;;;;;;13.70;8.53;;;;;;;17.11;72.98;98956.10;1658923;84;21009;-82
2021/05/18 07:28:31;;;;;;;;;;;;;;;17.12;73.12;98956.41;1666055;84;21589;-83
2021/05/18 07:30:57;;;;;;;12.03;8.30;;;;;;;17.08;73.46;98958.42;1660274;84;20171;-81
2021/05/18 07:33:23;;;;;;;15.28;8.15;;;;;;;17.18;73.16;98956.83;1661014;84;21192;-84
2021/05/18 07:35:53;;;;;;;13.15;8.78;;;;;;;17.07;73.30;98973.59;1662602;84;21269;-82
2021/05/18 07:38:16;;;;;;;14.65;8.40;;;;;;;16.91;73.44;98960.92;1659912;84;21039;-83
2021/05/18 07:40:42;;;;;;;11.30;8.60;;;;;;;16.90;73.61;98965.42;1663041;84;21032;-81
2021/05/18 07:43:16;;;;;;;14.10;8.65;;;;;;;17.02;73.56;98970.80;1635684;86;20897;-81
2021/05/18 07:45:38;;;;;;;11.15;7.72;;;;;;;17.14;73.15;98970.84;1660099;84;21600;-85
2021/05/18 07:48:22;;;;;;;12.70;9.68;;;;;;;17.16;73.17;98961.55;1662562;84;21135;-82
2021/05/18 07:51:03;;;;;;;13.22;9.05;;;;;;;16.97;73.91;98979.48;1659558;84;21053;-80
2021/05/18 08:07:06;;;;;;;12.45;9.00;;;;;;;16.99;74.62;98982.73;1661612;84;21076;-84
2021/05/18 08:09:35;;;;;;;12.68;8.78;;;;;;;17.01;74.73;98985.17;1656694;84;21140;-84
2021/05/18 08:12:01;;;;;;;14.23;9.23;;;;;;;16.95;74.99;98986.08;1657175;84;21665;-84
2021/05/18 08:14:29;;;;;;;14.33;8.30;;;;;;;17.01;74.65;98987.84;1664782;84;21378;-83
2021/05/18 08:17:13;;;;;;;11.95;8.90;;;;;;;17.09;74.65;98980.03;1666749;83;21693;-84
2021/05/18 10:17:47;;;;;;;10.23;5.90;;;;;;;17.47;71.95;99050.39;1666568;84;21044;-88
2021/05/18 10:36:07;;;;;;;17.32;6.20;;;;;;;17.50;71.56;99032.58;1649695;85;21029;-82
2021/05/18 10:38:46;;;;;;;12.20;6.40;;;;;;;17.51;71.71;99035.55;1648142;85;21027;-85
2021/05/18 10:41:26;;;;;;;15.38;6.08;;;;;;;17.49;71.36;99026.94;1625197;86;21179;-85
2021/05/18 10:44:08;;;;;;;11.22;6.33;;;;;;;17.54;71.45;99020.41;1649601;85;21017;-86
2021/05/18 10:47:00;;;;;;;8.65;6.42;;;;;;;17.63;71.33;99018.73;1655316;84;22035;-87
2021/05/18 10:49:37;;;;;;;10.15;6.00;;;;;;;17.64;71.09;99023.04;1649196;85;21087;-86
2021/05/18 10:52:08;;;;;;;10.65;5.67;;;;;;;17.45;72.31;99024.45;1649124;85;21129;-83
2021/05/18 10:54:39;;;;;;;9.38;6.28;;;;;;;17.50;72.04;99028.58;1653771;85;21988;-80
2021/05/18 10:57:20;;;;;;;9.15;6.55;;;;;;;17.44;72.04;99029.49;1652818;85;21063;-84
2021/05/18 10:59:54;;;;;;;9.68;6.55;;;;;;;17.41;72.17;99049.97;1628319;85;21232;-83
2021/05/18 11:02:40;;;;;;;13.75;7.00;;;;;;;17.27;71.98;99044.53;1652083;85;21066;-80
2021/05/18 11:05:15;;;;;;;11.85;7.30;;;;;;;17.43;71.84;99022.52;1652287;85;21106;-81
2021/05/18 11:07:45;;;;;;;10.68;7.10;;;;;;;17.51;71.82;99022.20;1648815;85;21174;-82
2021/05/18 11:10:18;;;;;;;11.70;7.40;;;;;;;17.38;72.47;99036.55;1650427;85;21719;-82
2021/05/18 11:12:48;;;;;;;11.53;7.08;;;;;;;17.30;72.65;99038.75;1646817;85;21171;-82
2021/05/18 11:15:26;;;;;;;15.90;7.55;;;;;;;17.39;72.55;99025.37;1652871;85;21070;-81
2021/05/18 11:17:54;;;;;;;14.00;8.03;;;;;;;17.42;72.12;99028.91;1651528;85;21025;-81
2021/05/18 11:26:04;;;;;;;14.93;8.08;;;;;;;17.44;71.86;99026.83;1652287;83;21045;-84
2021/05/18 11:28:39;;;;;;;11.53;7.05;;;;;;;17.29;72.28;99034.44;1652881;85;21045;-81
2021/05/18 11:31:21;;;;;;;13.35;8.28;;;;;;;17.29;72.05;99011.26;1614342;87;21077;-80
2021/05/18 11:33:53;;;;;;;10.35;7.30;;;;;;;17.48;71.58;99025.83;1650995;85;21198;-84
2021/05/18 11:36:21;;;;;;;14.43;7.80;;;;;;;17.41;72.33;99024.61;1650623;85;21291;-84
2021/05/18 11:39:01;;;;;;;12.55;6.97;;;;;;;17.67;72.04;99029.25;1649427;85;22004;-81
2021/05/18 11:41:37;;;;;;;11.93;8.35;;;;;;;17.61;72.46;99044.86;1645873;85;21244;-82
2021/05/18 11:44:08;;;;;;;15.38;8.45;;;;;;;17.47;73.05;99033.03;1658280;85;22454;-82
2021/05/18 11:46:42;;;;;;;10.23;7.62;;;;;;;17.63;72.72;99026.74;1654107;85;21751;-81
2021/05/18 11:49:12;;;;;;;13.95;7.62;;;;;;;17.76;71.78;99042.56;1650751;85;21140;-83
2021/05/18 11:51:52;;;;;;;10.68;8.08;;;;;;;18.01;71.34;99031.69;1619291;86;21568;-84
2021/05/18 11:54:22;;;;;;;12.00;8.00;;;;;;;17.97;71.53;99055.09;1622427;85;21085;-84
2021/05/18 11:56:51;;;;;;;14.87;7.92;;;;;;;17.81;71.55;99055.22;1652387;85;21030;-84
2021/05/18 11:59:19;;;;;;;10.45;7.85;;;;;;;17.72;72.14;99034.17;1650895;85;21178;-84
2021/05/18 12:01:57;;;;;;;12.63;8.25;;;;;;;17.87;72.08;99038.28;1652405;85;21076;-84
2021/05/18 12:04:26;;;;;;;11.30;8.23;;;;;;;17.93;72.21;99048.87;1623717;86;21047;-86
2021/05/18 12:07:10;;;;;;;13.68;8.95;;;;;;;17.68;72.64;99043.71;1652157;86;21041;-85
2021/05/18 12:09:42;;;;;;;12.50;8.58;;;;;;;17.66;72.67;99063.66;1652625;85;21110;-87
2021/05/18 12:12:11;;;;;;;12.40;9.15;;;;;;;17.63;72.91;99062.78;1649733;85;21064;-86
2021/05/18 12:14:52;;;;;;;13.93;10.53;;;;;;;17.73;72.51;99053.70;1653427;85;21144;-83
2021/05/18 12:17:35;;;;;;;15.25;9.90;;;;;;;17.28;73.99;99060.84;1650371;85;21108;-82
2021/05/18 12:20:04;;;;;;;14.87;9.93;;;;;;;17.28;74.26;99064.84;1650326;85;22018;-83
2021/05/18 12:22:42;;;;;;;14.68;10.48;;;;;;;17.22;74.19;99074.03;1653651;85;21043;-84
2021/05/18 12:25:11;;;;;;;14.60;10.50;;;;;;;17.26;74.21;99058.91;1647677;85;21028;-85
2021/05/18 12:27:47;;;;;;;12.13;9.98;;;;;;;17.23;74.20;99058.33;1650404;85;21616;-82
2021/05/18 12:30:15;;;;;;;15.32;10.32;;;;;;;17.40;73.52;99057.16;1641922;85;21148;-82
2021/05/18 12:32:50;;;;;;;13.85;10.48;;;;;;;17.29;74.39;99061.13;1648392;85;21010;-85
2021/05/18 12:35:28;;;;;;;13.35;9.85;;;;;;;17.35;73.98;99069.55;1644161;85;21060;-83
2021/05/18 12:37:58;;;;;;;15.03;9.95;;;;;;;17.46;73.73;99069.30;1647739;85;21172;-86
2021/05/18 12:40:34;;;;;;;16.85;10.30;;;;;;;17.50;73.20;99074.48;1644407;85;22563;-86
2021/05/18 12:43:21;;;;;;;11.78;9.15;;;;;;;17.52;73.22;99069.19;1644224;85;21156;-84
2021/05/18 12:46:06;;;;;;;13.08;8.63;;;;;;;17.50;72.91;99076.63;1640103;85;21023;-81
2021/05/18 12:48:38;;;;;;;13.43;8.88;;;;;;;17.42;72.81;99075.62;1632086;85;21206;-82
2021/05/18 12:51:21;;;;;;;13.43;9.13;;;;;;;17.26;73.59;99094.92;1650601;85;21083;-85
2021/05/18 12:53:47;;;;;;;11.12;7.97;;;;;;;17.41;73.13;99097.47;1647494;85;21180;-81
2021/05/18 12:56:30;;;;;;;10.65;8.30;;;;;;;17.38;72.61;99086.45;1610485;85;20922;-83
2021/05/18 12:59:08;;;;;;;10.58;7.95;;;;;;;17.28;73.17;99080.86;1643250;85;21666;-84
2021/05/18 13:01:42;;;;;;;13.88;7.90;;;;;;;17.55;72.64;99091.95;1645042;85;21109;-86
2021/05/18 13:04:12;;;;;;;10.60;7.25;;;;;;;17.71;72.07;99083.30;1643217;85;21222;-84
2021/05/18 13:06:49;;;;;;;9.93;7.15;;;;;;;17.66;72.60;99090.36;1624184;86;21057;-83
2021/05/18 13:09:19;;;;;;;7.90;6.78;;;;;;;17.43;72.89;99080.42;1624246;86;20989;-82
2021/05/18 13:14:58;;;;;;;10.63;6.55;;;;;;;17.83;71.48;99079.30;1641011;85;21129;-83
2021/05/18 13:17:27;;;;;;;11.95;6.70;;;;;;;18.12;70.55;99092.84;1644548;85;21087;-83
2021/05/18 13:20:08;;;;;;;11.00;6.20;;;;;;;18.01;70.93;99080.30;1646555;85;21285;-83
2021/05/18 13:22:38;;;;;;;9.98;6.33;;;;;;;17.72;71.73;99076.09;1647859;85;21108;-84
2021/05/18 13:27:59;;;;;;;8.58;6.03;;;;;;;17.67;71.37;99098.14;1640720;85;21802;-84
2021/05/18 13:30:27;;;;;;;10.43;6.05;;;;;;;17.59;71.86;99099.81;1641609;85;21135;-79
2021/05/18 13:32:59;;;;;;;12.47;6.90;;;;;;;17.72;71.50;99098.79;1652782;85;21091;-84
2021/05/18 13:35:29;;;;;;;11.38;6.53;;;;;;;17.42;72.25;99104.98;1666957;84;21214;-82
2021/05/18 13:37:58;;;;;;;10.38;6.70;;;;;;;17.59;71.46;99109.95;1661073;84;21071;-83
2021/05/18 13:40:28;;;;;;;11.22;7.33;;;;;;;17.35;72.52;99100.24;1664105;84;21688;-83
2021/05/18 13:42:54;;;;;;;12.07;6.78;;;;;;;17.74;71.51;99079.34;1667110;83;21774;-83
2021/05/18 13:45:27;;;;;;;12.47;7.20;;;;;;;17.80;71.47;99085.09;1633584;84;21172;-83
2021/05/18 13:47:56;;;;;;;12.25;7.87;;;;;;;17.61;71.88;99084.91;1665017;84;21095;-82
2021/05/18 13:50:27;;;;;;;8.60;6.47;;;;;;;17.66;71.74;99091.70;1661346;84;21152;-81
2021/05/18 13:52:54;;;;;;;10.03;7.20;;;;;;;17.51;72.39;99094.27;1662637;84;21107;-82
2021/05/18 13:55:21;;;;;;;;;;;;;;;17.51;72.55;99096.11;1665009;84;21108;-82
2021/05/18 13:57:51;;;;;;;;;;;;;;;17.69;71.99;99095.24;1660792;84;20275;-80
2021/05/18 14:00:18;;;;;;;11.85;7.17;;;;;;;17.59;72.35;99099.28;1662518;84;21208;-80
2021/05/18 14:02:50;;;;;;;14.73;8.18;;;;;;;17.51;72.39;99104.95;1654884;84;21630;-80
2021/05/18 14:05:20;;;;;;;14.43;8.15;;;;;;;17.28;73.10;99112.88;1632783;86;21041;-80
2021/05/18 14:08:23;;;;;;;11.65;8.13;;;;;;;17.12;73.69;99136.47;1632244;84;21361;-83
2021/05/18 14:11:07;;;;;;;12.73;7.83;;;;;;;17.18;73.83;99103.55;1661941;84;21108;-77
2021/05/18 14:13:36;;;;;;;13.05;8.60;;;;;;;16.98;74.51;99106.97;1661407;84;22060;-80
2021/05/18 14:16:09;;;;;;;12.90;8.05;;;;;;;17.05;74.42;99107.71;1665513;84;21053;-80
2021/05/18 14:18:39;;;;;;;11.88;7.70;;;;;;;17.19;73.97;99097.16;1662005;84;21684;-78
2021/05/18 14:21:10;;;;;;;9.63;7.78;;;;;;;17.21;73.70;99105.77;1659431;84;21108;-83
2021/05/18 14:23:44;;;;;;;12.33;7.35;;;;;;;16.95;74.78;99100.75;1658262;84;21500;-78
2021/05/18 14:26:07;;;;;;;11.03;7.12;;;;;;;16.92;74.58;99098.03;1660131;84;21736;-78
2021/05/18 14:28:36;;;;;;;12.55;7.20;;;;;;;16.85;74.77;99120.72;1662879;84;21666;-78
2021/05/18 14:31:08;;;;;;;10.20;6.87;;;;;;;16.79;75.26;99105.61;1660680;84;21036;-80
2021/05/18 14:33:37;;;;;;;9.15;6.67;;;;;;;16.73;75.55;99106.50;1638895;84;20988;-81
2021/05/18 14:36:10;;;;;;;10.50;6.67;;;;;;;16.79;75.01;99124.80;1668213;84;21131;-80
2021/05/18 14:38:41;;;;;;;10.95;6.97;;;;;;;16.83;74.77;99109.47;1648126;85;22353;-81
2021/05/18 14:46:42;;;;;;;7.95;4.78;;;;;;;17.07;73.75;99114.96;1645426;85;21110;-80
2021/05/18 14:57:08;;;;;;;8.15;5.10;;;;;;;16.80;74.11;99145.11;1663227;84;21037;-79
2021/05/18 14:59:35;;;;;;;6.90;4.55;;;;;;;16.48;75.08;99124.72;1644664;85;21280;-81
2021/05/18 15:02:01;;;;;;;7.00;4.70;;;;;;;16.80;74.21;99133.11;1664897;84;21160;-80
2021/05/18 15:04:29;;;;;;;9.50;4.85;;;;;;;16.65;74.05;99124.94;1666982;84;21112;-79
2021/05/18 15:06:56;;;;;;;9.25;5.12;;;;;;;16.49;74.56;99125.00;1670445;83;21614;-80
2021/05/18 15:09:23;;;;;;;7.87;4.60;;;;;;;16.39;75.02;99164.67;1665165;83;21614;-79
2021/05/18 15:11:51;;;;;;;5.87;3.98;;;;;;;16.56;74.60;99116.13;1662686;84;21052;-80
2021/05/18 15:14:16;;;;;;;7.97;4.12;;;;;;;16.43;75.03;99139.20;1658162;85;21104;-81
2021/05/18 15:16:44;;;;;;;12.10;4.60;;;;;;;16.55;74.84;99125.17;1642739;85;21163;-80
2021/05/18 15:19:14;;;;;;;7.47;4.80;;;;;;;16.55;74.95;99125.98;1666508;84;21108;-86
2021/05/18 15:21:42;;;;;;;7.65;4.42;;;;;;;16.29;75.61;99170.47;1658183;85;21634;-84
2021/05/18 15:24:08;;;;;;;8.45;4.60;;;;;;;16.48;75.07;99123.39;1641969;85;21360;-82
2021/05/18 15:26:35;;;;;;;8.63;3.60;;;;;;;16.56;74.82;99148.11;1617425;87;21186;-82
2021/05/18 15:29:03;;;;;;;8.10;4.10;;;;;;;16.56;74.77;99129.45;1669744;84;21077;-81
2021/05/18 15:31:32;;;;;;;7.62;4.22;;;;;;;16.58;74.87;99124.70;1665350;84;21614;-81
2021/05/18 15:34:08;;;;;;;7.25;4.37;;;;;;;16.63;74.78;99126.21;1624447;85;21037;-84
2021/05/18 15:36:36;;;;;;;7.12;4.12;;;;;;;16.55;74.76;99131.84;1598007;89;21177;-81
2021/05/18 15:39:02;;;;;;;6.72;4.40;;;;;;;16.41;75.07;99118.63;1613316;87;21602;-87
2021/05/18 15:41:31;;;;;;;6.70;4.08;;;;;;;16.47;75.09;99122.28;1632983;87;21199;-85
2021/05/18 15:44:00;;;;;;;9.08;4.25;;;;;;;16.41;75.19;99126.63;1631764;87;21089;-88
2021/05/18 15:46:27;;;;;;;5.65;3.87;;;;;;;16.49;75.11;99122.34;1633647;85;21139;-84
2021/05/18 15:48:57;;;;;;;8.45;3.98;;;;;;;16.27;75.55;99137.11;1634461;85;21734;-85
2021/05/18 15:51:23;;;;;;;6.72;3.72;;;;;;;16.30;75.49;99121.50;1637101;85;21119;-86
2021/05/18 15:53:48;;;;;;;9.90;3.67;;;;;;;16.43;75.15;99122.41;1633780;85;21067;-84
2021/05/18 15:56:16;;;;;;;8.20;3.77;;;;;;;16.58;74.48;99130.03;1635547;87;20942;-84
2021/05/18 15:58:45;;;;;;;7.50;3.45;;;;;;;16.59;74.69;99124.48;1605780;87;21720;-84
2021/05/18 16:01:13;;;;;;;5.20;3.37;;;;;;;16.50;74.79;99112.52;1634386;85;21076;-84
2021/05/18 16:03:42;;;;;;;6.70;3.50;;;;;;;16.40;74.97;99114.33;1633499;85;21113;-84
2021/05/18 16:06:13;;;;;;;5.42;3.58;;;;;;;16.46;74.89;99116.11;1639861;86;21822;-82
2021/05/18 16:11:15;;;;;;;7.85;3.27;;;;;;;16.39;74.92;99133.20;1638987;86;21032;-80
2021/05/18 16:13:45;;;;;;;7.22;3.20;;;;;;;16.24;75.30;99128.23;1631540;86;21170;-84
2021/05/18 16:16:16;;;;;;;10.60;3.27;;;;;;;16.30;75.21;99135.34;1632345;87;21720;-81
2021/05/18 16:18:45;;;;;;;5.22;3.33;;;;;;;16.30;75.35;99142.00;1635228;87;21770;-83
2021/05/18 16:21:20;;;;;;;6.83;3.60;;;;;;;16.29;75.30;99144.36;1630137;87;21141;-84
2021/05/18 16:23:48;;;;;;;4.83;3.30;;;;;;;16.29;75.06;99163.01;1624902;87;21080;-83
2021/05/18 16:26:16;;;;;;;6.45;3.50;;;;;;;16.47;74.61;99135.08;1613779;86;21151;-81
2021/05/18 16:28:46;;;;;;;8.00;3.60;;;;;;;16.50;74.40;99145.30;1634801;85;21144;-82
2021/05/18 16:31:14;;;;;;;4.65;3.17;;;;;;;16.59;74.32;99149.00;1633139;86;21123;-82
2021/05/18 16:33:41;;;;;;;5.33;3.50;;;;;;;16.50;74.60;99155.15;1634257;85;21633;-82
2021/05/18 16:36:13;;;;;;;8.35;3.55;;;;;;;16.44;74.64;99154.69;1648807;84;21198;-79
2021/05/18 16:38:41;;;;;;;6.10;3.45;;;;;;;16.39;74.79;99162.02;1643767;85;21051;-80
2021/05/18 16:41:13;;;;;;;6.15;3.58;;;;;;;16.44;74.78;99166.16;1641997;85;21216;-83
2021/05/18 16:43:40;;;;;;;7.08;3.85;;;;;;;16.58;74.21;99164.69;1646622;85;22396;-85
2021/05/18 16:46:14;;;;;;;8.38;3.27;;;;;;;16.46;74.62;99179.27;1647374;85;25120;-80
2021/05/18 16:48:41;;;;;;;6.37;3.62;;;;;;;16.10;75.91;99181.59;1647809;85;21059;-84